sensor_id;sensor_type;location;lat;lon;timestamp;temperature;humidity
32698;DHT22;19087;51.062;3.754;2023-01-28T00:01:05;6.80;99.90
32698;DHT22;19087;51.062;3.754;2023-01-28T00:03:31;6.80;99.90
32698;DHT22;19087;51.062;3.754;2023-01-28T00:06:06;6.80;99.90
32698;DHT22;19087;51.062;3.754;2023-01-28T00:08:32;6.60;99.90
32698;DHT22;19087;51.062;3.754;2023-01-28T00:11:02;6.60;99.90
32698;DHT22;19087;51.062;3.754;2023-01-28T00:13:28;6.60;99.90
32698;DHT22;19087;51.062;3.754;2023-01-28T00:15:58;6.50;99.90
32698;DHT22;19087;51.062;3.754;2023-01-28T00:18:26;6.50;99.90
32698;DHT22;19087;51.062;3.754;2023-01-28T00:20:59;6.50;99.90
32698;DHT22;19087;51.062;3.754;2023-01-28T00:23:26;6.60;99.90
32698;DHT22;19087;51.062;3.754;2023-01-28T00:25:52;6.60;99.90
32698;DHT22;19087;51.062;3.754;2023-01-28T00:28:20;6.50;99.90
32698;DHT22;19087;51.062;3.754;2023-01-28T00:30:48;6.50;99.90
32698;DHT22;19087;51.062;3.754;2023-01-28T00:33:15;6.60;99.90
32698;DHT22;19087;51.062;3.754;2023-01-28T00:35:42;6.60;99.90
32698;DHT22;19087;51.062;3.754;2023-01-28T00:38:08;6.40;99.90
32698;DHT22;19087;51.062;3.754;2023-01-28T00:40:34;6.40;99.90
32698;DHT22;19087;51.062;3.754;2023-01-28T00:43:01;6.60;99.90
32698;DHT22;19087;51.062;3.754;2023-01-28T00:45:27;6.60;99.90
32698;DHT22;19087;51.062;3.754;2023-01-28T00:47:52;6.50;99.90
32698;DHT22;19087;51.062;3.754;2023-01-28T00:50:18;6.40;99.90
32698;DHT22;19087;51.062;3.754;2023-01-28T00:52:46;6.40;99.90
32698;DHT22;19087;51.062;3.754;2023-01-28T00:55:12;6.40;99.90
32698;DHT22;19087;51.062;3.754;2023-01-28T00:57:40;6.40;99.90
32698;DHT22;19087;51.062;3.754;2023-01-28T01:00:06;6.60;99.90
32698;DHT22;19087;51.062;3.754;2023-01-28T01:02:32;6.30;99.90
32698;DHT22;19087;51.062;3.754;2023-01-28T01:04:58;6.20;99.90
32698;DHT22;19087;51.062;3.754;2023-01-28T01:07:26;6.20;99.90
32698;DHT22;19087;51.062;3.754;2023-01-28T01:10:02;6.20;99.90
32698;DHT22;19087;51.062;3.754;2023-01-28T01:12:29;6.10;99.90
32698;DHT22;19087;51.062;3.754;2023-01-28T01:14:56;6.10;99.90
32698;DHT22;19087;51.062;3.754;2023-01-28T01:17:22;6.20;99.90
32698;DHT22;19087;51.062;3.754;2023-01-28T01:19:47;6.30;99.90
32698;DHT22;19087;51.062;3.754;2023-01-28T01:22:14;6.50;99.90
32698;DHT22;19087;51.062;3.754;2023-01-28T01:24:43;6.40;99.90
32698;DHT22;19087;51.062;3.754;2023-01-28T01:27:11;6.40;99.90
32698;DHT22;19087;51.062;3.754;2023-01-28T01:29:37;6.30;99.90
32698;DHT22;19087;51.062;3.754;2023-01-28T01:32:04;6.30;99.90
32698;DHT22;19087;51.062;3.754;2023-01-28T01:34:29;6.10;99.90
32698;DHT22;19087;51.062;3.754;2023-01-28T01:36:55;6.10;99.90
32698;DHT22;19087;51.062;3.754;2023-01-28T01:39:21;6.30;99.90
32698;DHT22;19087;51.062;3.754;2023-01-28T01:41:46;6.20;99.90
32698;DHT22;19087;51.062;3.754;2023-01-28T01:47:16;6.10;99.90
32698;DHT22;19087;51.062;3.754;2023-01-28T01:49:42;6.20;99.90
32698;DHT22;19087;51.062;3.754;2023-01-28T01:52:15;6.00;99.90
32698;DHT22;19087;51.062;3.754;2023-01-28T01:54:49;5.80;99.90
32698;DHT22;19087;51.062;3.754;2023-01-28T01:57:23;6.00;99.90
32698;DHT22;19087;51.062;3.754;2023-01-28T01:59:50;6.10;99.90
32698;DHT22;19087;51.062;3.754;2023-01-28T02:02:16;6.30;99.90
32698;DHT22;19087;51.062;3.754;2023-01-28T02:04:43;6.40;99.90
32698;DHT22;19087;51.062;3.754;2023-01-28T02:07:12;6.40;99.90
32698;DHT22;19087;51.062;3.754;2023-01-28T02:09:39;6.30;99.90
32698;DHT22;19087;51.062;3.754;2023-01-28T02:12:15;6.40;99.90
32698;DHT22;19087;51.062;3.754;2023-01-28T02:14:49;6.40;99.90
32698;DHT22;19087;51.062;3.754;2023-01-28T02:17:17;6.40;99.90
32698;DHT22;19087;51.062;3.754;2023-01-28T02:19:58;6.40;99.90
32698;DHT22;19087;51.062;3.754;2023-01-28T02:39:23;6.30;99.90
32698;DHT22;19087;51.062;3.754;2023-01-28T02:41:59;6.30;99.90
32698;DHT22;19087;51.062;3.754;2023-01-28T02:44:25;6.10;99.90
32698;DHT22;19087;51.062;3.754;2023-01-28T02:46:52;6.20;99.90
32698;DHT22;19087;51.062;3.754;2023-01-28T02:49:42;6.30;99.90
32698;DHT22;19087;51.062;3.754;2023-01-28T02:52:24;6.20;99.90
32698;DHT22;19087;51.062;3.754;2023-01-28T02:55:14;6.30;99.90
32698;DHT22;19087;51.062;3.754;2023-01-28T03:00:55;6.10;99.90
32698;DHT22;19087;51.062;3.754;2023-01-28T03:06:23;6.20;99.90
32698;DHT22;19087;51.062;3.754;2023-01-28T03:08:53;6.10;99.90
32698;DHT22;19087;51.062;3.754;2023-01-28T03:11:41;6.10;99.90
32698;DHT22;19087;51.062;3.754;2023-01-28T03:14:27;6.20;99.90
32698;DHT22;19087;51.062;3.754;2023-01-28T03:17:18;6.10;99.90
32698;DHT22;19087;51.062;3.754;2023-01-28T03:20:03;6.10;99.90
32698;DHT22;19087;51.062;3.754;2023-01-28T03:22:50;6.10;99.90
32698;DHT22;19087;51.062;3.754;2023-01-28T03:25:41;6.10;99.90
32698;DHT22;19087;51.062;3.754;2023-01-28T03:28:27;6.10;99.90
32698;DHT22;19087;51.062;3.754;2023-01-28T03:31:14;6.10;99.90
32698;DHT22;19087;51.062;3.754;2023-01-28T03:34:02;6.00;99.90
32698;DHT22;19087;51.062;3.754;2023-01-28T03:36:48;5.90;99.90
32698;DHT22;19087;51.062;3.754;2023-01-28T03:39:16;5.90;99.90
32698;DHT22;19087;51.062;3.754;2023-01-28T03:41:54;5.90;99.90
32698;DHT22;19087;51.062;3.754;2023-01-28T03:44:20;5.90;99.90
32698;DHT22;19087;51.062;3.754;2023-01-28T03:47:04;6.00;99.90
32698;DHT22;19087;51.062;3.754;2023-01-28T03:49:31;5.80;99.90
32698;DHT22;19087;51.062;3.754;2023-01-28T03:51:57;6.00;99.90
32698;DHT22;19087;51.062;3.754;2023-01-28T03:54:22;6.00;99.90
32698;DHT22;19087;51.062;3.754;2023-01-28T03:56:48;6.10;99.90
32698;DHT22;19087;51.062;3.754;2023-01-28T03:59:14;6.00;99.90
32698;DHT22;19087;51.062;3.754;2023-01-28T04:01:39;6.00;99.90
32698;DHT22;19087;51.062;3.754;2023-01-28T04:04:05;6.00;99.90
32698;DHT22;19087;51.062;3.754;2023-01-28T04:06:31;6.10;99.90
32698;DHT22;19087;51.062;3.754;2023-01-28T04:08:56;6.00;99.90
32698;DHT22;19087;51.062;3.754;2023-01-28T04:11:25;5.90;99.90
32698;DHT22;19087;51.062;3.754;2023-01-28T04:13:51;6.00;99.90
32698;DHT22;19087;51.062;3.754;2023-01-28T04:16:18;6.10;99.90
32698;DHT22;19087;51.062;3.754;2023-01-28T04:18:44;5.70;99.90
32698;DHT22;19087;51.062;3.754;2023-01-28T04:21:10;5.70;99.90
32698;DHT22;19087;51.062;3.754;2023-01-28T04:23:37;5.70;99.90
32698;DHT22;19087;51.062;3.754;2023-01-28T04:26:03;5.80;99.90
32698;DHT22;19087;51.062;3.754;2023-01-28T04:28:29;5.80;99.90
32698;DHT22;19087;51.062;3.754;2023-01-28T04:30:55;5.90;99.90
32698;DHT22;19087;51.062;3.754;2023-01-28T04:33:21;6.00;99.90
32698;DHT22;19087;51.062;3.754;2023-01-28T04:35:47;6.00;99.90
32698;DHT22;19087;51.062;3.754;2023-01-28T04:38:12;6.00;99.90
32698;DHT22;19087;51.062;3.754;2023-01-28T04:40:38;6.10;99.90
32698;DHT22;19087;51.062;3.754;2023-01-28T04:43:04;6.10;99.90
32698;DHT22;19087;51.062;3.754;2023-01-28T04:45:29;5.80;99.90
32698;DHT22;19087;51.062;3.754;2023-01-28T04:47:55;5.80;99.90
32698;DHT22;19087;51.062;3.754;2023-01-28T04:50:23;5.70;99.90
32698;DHT22;19087;51.062;3.754;2023-01-28T04:52:49;5.80;99.90
32698;DHT22;19087;51.062;3.754;2023-01-28T04:55:14;5.70;99.90
32698;DHT22;19087;51.062;3.754;2023-01-28T04:57:40;5.70;99.90
32698;DHT22;19087;51.062;3.754;2023-01-28T05:00:07;5.70;99.90
32698;DHT22;19087;51.062;3.754;2023-01-28T05:02:33;5.60;99.90
32698;DHT22;19087;51.062;3.754;2023-01-28T05:04:59;5.60;99.90
32698;DHT22;19087;51.062;3.754;2023-01-28T05:07:26;5.70;99.90
32698;DHT22;19087;51.062;3.754;2023-01-28T05:09:51;5.90;99.90
32698;DHT22;19087;51.062;3.754;2023-01-28T05:12:17;6.00;99.90
32698;DHT22;19087;51.062;3.754;2023-01-28T05:14:45;6.10;99.90
32698;DHT22;19087;51.062;3.754;2023-01-28T05:17:10;6.10;99.90
32698;DHT22;19087;51.062;3.754;2023-01-28T05:19:36;6.20;99.90
32698;DHT22;19087;51.062;3.754;2023-01-28T05:22:02;6.30;99.90
32698;DHT22;19087;51.062;3.754;2023-01-28T05:24:28;6.40;99.90
32698;DHT22;19087;51.062;3.754;2023-01-28T05:26:53;6.40;99.90
32698;DHT22;19087;51.062;3.754;2023-01-28T05:29:19;6.40;99.90
32698;DHT22;19087;51.062;3.754;2023-01-28T05:31:46;6.30;99.90
32698;DHT22;19087;51.062;3.754;2023-01-28T05:34:12;6.40;99.90
32698;DHT22;19087;51.062;3.754;2023-01-28T05:36:39;6.50;99.90
32698;DHT22;19087;51.062;3.754;2023-01-28T05:39:06;6.60;99.90
32698;DHT22;19087;51.062;3.754;2023-01-28T05:41:32;6.40;99.90
32698;DHT22;19087;51.062;3.754;2023-01-28T05:43:58;6.40;99.90
32698;DHT22;19087;51.062;3.754;2023-01-28T05:46:23;6.30;99.90
32698;DHT22;19087;51.062;3.754;2023-01-28T05:48:51;6.40;99.90
32698;DHT22;19087;51.062;3.754;2023-01-28T05:51:17;6.40;99.90
32698;DHT22;19087;51.062;3.754;2023-01-28T05:53:43;6.40;99.90
32698;DHT22;19087;51.062;3.754;2023-01-28T05:56:08;6.40;99.90
32698;DHT22;19087;51.062;3.754;2023-01-28T05:58:34;6.60;99.90
32698;DHT22;19087;51.062;3.754;2023-01-28T06:01:00;6.60;99.90
32698;DHT22;19087;51.062;3.754;2023-01-28T06:03:25;6.50;99.90
32698;DHT22;19087;51.062;3.754;2023-01-28T06:05:51;6.50;99.90
32698;DHT22;19087;51.062;3.754;2023-01-28T06:08:17;6.30;99.90
32698;DHT22;19087;51.062;3.754;2023-01-28T06:10:42;6.30;99.90
32698;DHT22;19087;51.062;3.754;2023-01-28T06:13:09;6.20;99.90
32698;DHT22;19087;51.062;3.754;2023-01-28T06:15:35;6.20;99.90
32698;DHT22;19087;51.062;3.754;2023-01-28T06:18:00;6.30;99.90
32698;DHT22;19087;51.062;3.754;2023-01-28T06:20:26;6.20;99.90
32698;DHT22;19087;51.062;3.754;2023-01-28T06:22:52;6.10;99.90
32698;DHT22;19087;51.062;3.754;2023-01-28T06:25:18;6.10;99.90
32698;DHT22;19087;51.062;3.754;2023-01-28T06:27:44;6.20;99.90
32698;DHT22;19087;51.062;3.754;2023-01-28T06:30:10;6.30;99.90
32698;DHT22;19087;51.062;3.754;2023-01-28T06:32:36;6.30;99.90
32698;DHT22;19087;51.062;3.754;2023-01-28T06:35:04;6.40;99.90
32698;DHT22;19087;51.062;3.754;2023-01-28T06:37:30;6.40;99.90
32698;DHT22;19087;51.062;3.754;2023-01-28T06:39:55;6.30;99.90
32698;DHT22;19087;51.062;3.754;2023-01-28T06:42:22;6.30;99.90
32698;DHT22;19087;51.062;3.754;2023-01-28T06:44:48;6.20;99.90
32698;DHT22;19087;51.062;3.754;2023-01-28T06:47:14;6.20;99.90
32698;DHT22;19087;51.062;3.754;2023-01-28T06:49:40;6.00;99.90
32698;DHT22;19087;51.062;3.754;2023-01-28T06:52:05;6.00;99.90
32698;DHT22;19087;51.062;3.754;2023-01-28T06:54:31;6.10;99.90
32698;DHT22;19087;51.062;3.754;2023-01-28T06:56:57;6.20;99.90
32698;DHT22;19087;51.062;3.754;2023-01-28T06:59:23;6.20;99.90
32698;DHT22;19087;51.062;3.754;2023-01-28T07:01:48;6.30;99.90
32698;DHT22;19087;51.062;3.754;2023-01-28T07:04:14;6.30;99.90
32698;DHT22;19087;51.062;3.754;2023-01-28T07:06:40;6.30;99.90
32698;DHT22;19087;51.062;3.754;2023-01-28T07:09:07;5.90;99.90
32698;DHT22;19087;51.062;3.754;2023-01-28T07:11:32;5.90;99.90
32698;DHT22;19087;51.062;3.754;2023-01-28T07:13:58;6.00;99.90
32698;DHT22;19087;51.062;3.754;2023-01-28T07:16:24;6.10;99.90
32698;DHT22;19087;51.062;3.754;2023-01-28T07:18:49;6.00;99.90
32698;DHT22;19087;51.062;3.754;2023-01-28T07:21:15;6.10;99.90
32698;DHT22;19087;51.062;3.754;2023-01-28T07:23:41;5.80;99.90
32698;DHT22;19087;51.062;3.754;2023-01-28T07:26:07;5.90;99.90
32698;DHT22;19087;51.062;3.754;2023-01-28T07:28:33;6.00;99.90
32698;DHT22;19087;51.062;3.754;2023-01-28T07:30:59;6.00;99.90
32698;DHT22;19087;51.062;3.754;2023-01-28T07:33:25;6.10;99.90
32698;DHT22;19087;51.062;3.754;2023-01-28T07:35:51;6.10;99.90
32698;DHT22;19087;51.062;3.754;2023-01-28T07:38:17;5.80;99.90
32698;DHT22;19087;51.062;3.754;2023-01-28T07:40:46;5.80;99.90
32698;DHT22;19087;51.062;3.754;2023-01-28T07:43:12;6.00;99.90
32698;DHT22;19087;51.062;3.754;2023-01-28T07:45:39;6.00;99.90
32698;DHT22;19087;51.062;3.754;2023-01-28T07:48:06;6.00;99.90
32698;DHT22;19087;51.062;3.754;2023-01-28T07:50:35;5.80;99.90
32698;DHT22;19087;51.062;3.754;2023-01-28T07:53:09;5.80;99.90
32698;DHT22;19087;51.062;3.754;2023-01-28T07:55:38;5.70;99.90
32698;DHT22;19087;51.062;3.754;2023-01-28T07:58:06;5.60;99.90
32698;DHT22;19087;51.062;3.754;2023-01-28T08:00:34;5.70;99.90
32698;DHT22;19087;51.062;3.754;2023-01-28T08:03:12;5.70;99.90
32698;DHT22;19087;51.062;3.754;2023-01-28T08:05:47;5.70;99.90
32698;DHT22;19087;51.062;3.754;2023-01-28T08:08:14;5.80;99.90
32698;DHT22;19087;51.062;3.754;2023-01-28T08:10:40;5.90;99.90
32698;DHT22;19087;51.062;3.754;2023-01-28T08:13:06;5.90;99.90
32698;DHT22;19087;51.062;3.754;2023-01-28T08:15:32;5.90;99.90
32698;DHT22;19087;51.062;3.754;2023-01-28T08:17:59;6.00;99.90
32698;DHT22;19087;51.062;3.754;2023-01-28T08:20:27;6.10;99.90
32698;DHT22;19087;51.062;3.754;2023-01-28T08:22:53;6.10;99.90
32698;DHT22;19087;51.062;3.754;2023-01-28T08:25:19;6.20;99.90
32698;DHT22;19087;51.062;3.754;2023-01-28T08:27:45;6.20;99.90
32698;DHT22;19087;51.062;3.754;2023-01-28T08:30:11;6.00;99.90
32698;DHT22;19087;51.062;3.754;2023-01-28T08:32:37;5.60;99.90
32698;DHT22;19087;51.062;3.754;2023-01-28T08:35:03;5.50;99.90
32698;DHT22;19087;51.062;3.754;2023-01-28T08:37:29;5.40;99.90
32698;DHT22;19087;51.062;3.754;2023-01-28T08:39:55;5.50;99.90
32698;DHT22;19087;51.062;3.754;2023-01-28T08:42:21;5.80;99.90
32698;DHT22;19087;51.062;3.754;2023-01-28T08:44:48;5.90;99.90
32698;DHT22;19087;51.062;3.754;2023-01-28T08:47:15;5.90;99.90
32698;DHT22;19087;51.062;3.754;2023-01-28T08:49:41;6.10;99.90
32698;DHT22;19087;51.062;3.754;2023-01-28T08:52:07;6.20;99.90
32698;DHT22;19087;51.062;3.754;2023-01-28T08:54:33;6.10;99.90
32698;DHT22;19087;51.062;3.754;2023-01-28T08:57:01;6.00;99.90
32698;DHT22;19087;51.062;3.754;2023-01-28T08:59:27;6.00;99.90
32698;DHT22;19087;51.062;3.754;2023-01-28T09:01:52;5.90;99.90
32698;DHT22;19087;51.062;3.754;2023-01-28T09:04:18;6.00;99.90
32698;DHT22;19087;51.062;3.754;2023-01-28T09:06:43;6.00;99.90
32698;DHT22;19087;51.062;3.754;2023-01-28T09:09:09;5.90;99.90
32698;DHT22;19087;51.062;3.754;2023-01-28T09:11:35;6.00;99.90
32698;DHT22;19087;51.062;3.754;2023-01-28T09:14:01;6.10;99.90
32698;DHT22;19087;51.062;3.754;2023-01-28T09:16:27;6.30;99.90
32698;DHT22;19087;51.062;3.754;2023-01-28T09:18:52;6.30;99.90
32698;DHT22;19087;51.062;3.754;2023-01-28T09:21:19;6.20;99.90
32698;DHT22;19087;51.062;3.754;2023-01-28T09:23:45;6.60;99.90
32698;DHT22;19087;51.062;3.754;2023-01-28T09:26:11;6.80;99.90
32698;DHT22;19087;51.062;3.754;2023-01-28T09:28:37;6.60;99.90
32698;DHT22;19087;51.062;3.754;2023-01-28T09:31:07;6.70;99.90
32698;DHT22;19087;51.062;3.754;2023-01-28T09:33:34;6.70;99.90
32698;DHT22;19087;51.062;3.754;2023-01-28T09:36:04;6.70;99.90
32698;DHT22;19087;51.062;3.754;2023-01-28T09:38:31;6.80;99.90
32698;DHT22;19087;51.062;3.754;2023-01-28T09:40:57;7.00;99.90
32698;DHT22;19087;51.062;3.754;2023-01-28T09:43:45;6.80;99.90
32698;DHT22;19087;51.062;3.754;2023-01-28T09:46:14;6.70;99.90
32698;DHT22;19087;51.062;3.754;2023-01-28T09:48:47;6.70;99.90
32698;DHT22;19087;51.062;3.754;2023-01-28T09:51:55;6.70;99.90
32698;DHT22;19087;51.062;3.754;2023-01-28T09:57:35;7.20;99.90
32698;DHT22;19087;51.062;3.754;2023-01-28T10:00:14;7.30;99.90
32698;DHT22;19087;51.062;3.754;2023-01-28T10:05:47;7.50;99.90
32698;DHT22;19087;51.062;3.754;2023-01-28T10:11:16;7.10;99.90
32698;DHT22;19087;51.062;3.754;2023-01-28T10:16:29;7.20;99.90
32698;DHT22;19087;51.062;3.754;2023-01-28T10:19:01;7.20;99.90
32698;DHT22;19087;51.062;3.754;2023-01-28T10:21:53;7.30;99.90
32698;DHT22;19087;51.062;3.754;2023-01-28T10:24:37;7.40;99.90
32698;DHT22;19087;51.062;3.754;2023-01-28T10:27:15;7.50;99.90
32698;DHT22;19087;51.062;3.754;2023-01-28T10:29:41;7.60;99.90
32698;DHT22;19087;51.062;3.754;2023-01-28T10:32:32;7.70;99.90
32698;DHT22;19087;51.062;3.754;2023-01-28T10:35:00;7.80;99.90
32698;DHT22;19087;51.062;3.754;2023-01-28T10:37:32;8.10;99.90
32698;DHT22;19087;51.062;3.754;2023-01-28T10:39:59;8.30;99.90
32698;DHT22;19087;51.062;3.754;2023-01-28T10:42:31;8.20;99.90
32698;DHT22;19087;51.062;3.754;2023-01-28T10:45:21;8.00;99.90
32698;DHT22;19087;51.062;3.754;2023-01-28T10:47:52;7.90;99.90
32698;DHT22;19087;51.062;3.754;2023-01-28T10:50:25;7.70;99.90
32698;DHT22;19087;51.062;3.754;2023-01-28T10:52:59;7.60;99.90
32698;DHT22;19087;51.062;3.754;2023-01-28T10:55:43;7.80;99.90
32698;DHT22;19087;51.062;3.754;2023-01-28T10:58:20;8.00;99.90
32698;DHT22;19087;51.062;3.754;2023-01-28T11:01:02;8.00;99.90
32698;DHT22;19087;51.062;3.754;2023-01-28T11:03:28;8.20;99.90
32698;DHT22;19087;51.062;3.754;2023-01-28T11:05:56;8.10;99.90
32698;DHT22;19087;51.062;3.754;2023-01-28T11:08:24;8.30;99.90
32698;DHT22;19087;51.062;3.754;2023-01-28T11:10:51;8.00;99.90
32698;DHT22;19087;51.062;3.754;2023-01-28T11:13:24;8.00;99.90
32698;DHT22;19087;51.062;3.754;2023-01-28T11:15:51;8.10;99.90
32698;DHT22;19087;51.062;3.754;2023-01-28T11:18:50;8.00;99.90
32698;DHT22;19087;51.062;3.754;2023-01-28T11:21:35;8.20;99.90
32698;DHT22;19087;51.062;3.754;2023-01-28T11:24:03;8.30;99.90
32698;DHT22;19087;51.062;3.754;2023-01-28T11:26:32;8.20;99.90
32698;DHT22;19087;51.062;3.754;2023-01-28T11:28:59;8.30;99.90
32698;DHT22;19087;51.062;3.754;2023-01-28T11:31:25;8.00;99.90
32698;DHT22;19087;51.062;3.754;2023-01-28T11:33:55;7.80;99.90
32698;DHT22;19087;51.062;3.754;2023-01-28T11:36:30;7.90;99.90
32698;DHT22;19087;51.062;3.754;2023-01-28T11:39:23;7.80;99.90
32698;DHT22;19087;51.062;3.754;2023-01-28T11:41:50;8.10;99.90
32698;DHT22;19087;51.062;3.754;2023-01-28T11:44:26;8.40;99.90
32698;DHT22;19087;51.062;3.754;2023-01-28T11:58:18;8.50;99.90
32698;DHT22;19087;51.062;3.754;2023-01-28T12:01:01;8.50;99.90
32698;DHT22;19087;51.062;3.754;2023-01-28T12:04:02;8.30;99.90
32698;DHT22;19087;51.062;3.754;2023-01-28T12:07:42;8.10;99.90
32698;DHT22;19087;51.062;3.754;2023-01-28T12:21:09;6.90;99.90
32698;DHT22;19087;51.062;3.754;2023-01-28T12:23:57;6.60;99.90
32698;DHT22;19087;51.062;3.754;2023-01-28T12:26:32;6.70;99.90
32698;DHT22;19087;51.062;3.754;2023-01-28T12:29:29;6.70;99.90
32698;DHT22;19087;51.062;3.754;2023-01-28T12:40:16;6.70;99.90
32698;DHT22;19087;51.062;3.754;2023-01-28T12:42:51;6.80;99.90
32698;DHT22;19087;51.062;3.754;2023-01-28T12:45:43;6.80;99.90
32698;DHT22;19087;51.062;3.754;2023-01-28T12:48:46;6.70;99.90
32698;DHT22;19087;51.062;3.754;2023-01-28T12:51:22;6.60;99.90
32698;DHT22;19087;51.062;3.754;2023-01-28T12:53:53;6.70;99.90
32698;DHT22;19087;51.062;3.754;2023-01-28T12:56:28;6.70;99.90
32698;DHT22;19087;51.062;3.754;2023-01-28T12:58:56;6.90;99.90
32698;DHT22;19087;51.062;3.754;2023-01-28T13:01:40;7.30;99.90
32698;DHT22;19087;51.062;3.754;2023-01-28T13:04:55;7.60;99.90
32698;DHT22;19087;51.062;3.754;2023-01-28T13:07:48;7.70;99.90
32698;DHT22;19087;51.062;3.754;2023-01-28T13:10:42;7.70;99.90
32698;DHT22;19087;51.062;3.754;2023-01-28T13:15:41;7.50;99.90
32698;DHT22;19087;51.062;3.754;2023-01-28T13:18:31;7.60;99.90
32698;DHT22;19087;51.062;3.754;2023-01-28T13:20:58;8.00;99.90
32698;DHT22;19087;51.062;3.754;2023-01-28T13:28:45;8.70;99.90
32698;DHT22;19087;51.062;3.754;2023-01-28T13:31:14;8.80;99.90
32698;DHT22;19087;51.062;3.754;2023-01-28T13:33:48;8.80;99.90
32698;DHT22;19087;51.062;3.754;2023-01-28T13:36:43;8.90;99.90
32698;DHT22;19087;51.062;3.754;2023-01-28T13:39:23;8.70;99.90
32698;DHT22;19087;51.062;3.754;2023-01-28T13:41:53;8.60;99.90
32698;DHT22;19087;51.062;3.754;2023-01-28T13:46:57;8.80;99.90
32698;DHT22;19087;51.062;3.754;2023-01-28T13:49:48;8.80;99.90
32698;DHT22;19087;51.062;3.754;2023-01-28T13:55:38;8.30;99.90
32698;DHT22;19087;51.062;3.754;2023-01-28T14:20:33;10.10;99.90
32698;DHT22;19087;51.062;3.754;2023-01-28T14:23:15;10.60;99.90
32698;DHT22;19087;51.062;3.754;2023-01-28T14:26:07;11.10;99.90
32698;DHT22;19087;51.062;3.754;2023-01-28T14:29:12;11.40;99.90
32698;DHT22;19087;51.062;3.754;2023-01-28T14:31:42;11.20;99.90
32698;DHT22;19087;51.062;3.754;2023-01-28T14:37:06;10.60;99.90
32698;DHT22;19087;51.062;3.754;2023-01-28T14:39:47;10.40;99.90
32698;DHT22;19087;51.062;3.754;2023-01-28T14:42:26;10.20;99.90
32698;DHT22;19087;51.062;3.754;2023-01-28T14:53:03;8.60;99.90
32698;DHT22;19087;51.062;3.754;2023-01-28T14:58:17;8.30;99.90
32698;DHT22;19087;51.062;3.754;2023-01-28T15:00:56;8.10;99.90
32698;DHT22;19087;51.062;3.754;2023-01-28T15:03:25;8.10;99.90
32698;DHT22;19087;51.062;3.754;2023-01-28T15:06:17;8.10;99.90
32698;DHT22;19087;51.062;3.754;2023-01-28T15:08:44;8.10;99.90
32698;DHT22;19087;51.062;3.754;2023-01-28T15:11:13;7.90;99.90
32698;DHT22;19087;51.062;3.754;2023-01-28T15:13:50;8.00;99.90
32698;DHT22;19087;51.062;3.754;2023-01-28T15:16:20;8.00;99.90
32698;DHT22;19087;51.062;3.754;2023-01-28T15:18:48;8.10;99.90
32698;DHT22;19087;51.062;3.754;2023-01-28T15:21:23;8.10;99.90
32698;DHT22;19087;51.062;3.754;2023-01-28T15:23:51;8.10;99.90
32698;DHT22;19087;51.062;3.754;2023-01-28T15:26:30;8.00;99.90
32698;DHT22;19087;51.062;3.754;2023-01-28T15:28:57;8.10;99.90
32698;DHT22;19087;51.062;3.754;2023-01-28T15:31:29;8.00;99.90
32698;DHT22;19087;51.062;3.754;2023-01-28T15:34:17;8.00;99.90
32698;DHT22;19087;51.062;3.754;2023-01-28T15:36:43;8.10;99.90
32698;DHT22;19087;51.062;3.754;2023-01-28T15:39:14;8.10;99.90
32698;DHT22;19087;51.062;3.754;2023-01-28T15:41:42;8.00;99.90
32698;DHT22;19087;51.062;3.754;2023-01-28T15:44:26;7.90;99.90
32698;DHT22;19087;51.062;3.754;2023-01-28T15:46:56;8.00;99.90
32698;DHT22;19087;51.062;3.754;2023-01-28T15:49:26;7.90;99.90
32698;DHT22;19087;51.062;3.754;2023-01-28T15:51:55;7.60;99.90
32698;DHT22;19087;51.062;3.754;2023-01-28T15:54:21;7.50;99.90
32698;DHT22;19087;51.062;3.754;2023-01-28T15:56:48;7.50;99.90
32698;DHT22;19087;51.062;3.754;2023-01-28T15:59:24;7.60;99.90
32698;DHT22;19087;51.062;3.754;2023-01-28T16:02:01;7.50;99.90
32698;DHT22;19087;51.062;3.754;2023-01-28T16:04:33;7.40;99.90
32698;DHT22;19087;51.062;3.754;2023-01-28T16:07:03;7.50;99.90
32698;DHT22;19087;51.062;3.754;2023-01-28T16:09:32;7.40;99.90
32698;DHT22;19087;51.062;3.754;2023-01-28T16:12:11;7.20;99.90
32698;DHT22;19087;51.062;3.754;2023-01-28T16:14:42;7.10;99.90
32698;DHT22;19087;51.062;3.754;2023-01-28T16:17:10;7.10;99.90
32698;DHT22;19087;51.062;3.754;2023-01-28T16:19:43;7.30;99.90
32698;DHT22;19087;51.062;3.754;2023-01-28T16:24:52;7.40;99.90
32698;DHT22;19087;51.062;3.754;2023-01-28T16:27:21;7.30;99.90
32698;DHT22;19087;51.062;3.754;2023-01-28T16:29:47;7.20;99.90
32698;DHT22;19087;51.062;3.754;2023-01-28T16:34:58;7.20;99.90
32698;DHT22;19087;51.062;3.754;2023-01-28T16:37:25;6.90;99.90
32698;DHT22;19087;51.062;3.754;2023-01-28T16:39:51;6.90;99.90
32698;DHT22;19087;51.062;3.754;2023-01-28T16:42:17;7.00;99.90
32698;DHT22;19087;51.062;3.754;2023-01-28T16:44:43;7.00;99.90
32698;DHT22;19087;51.062;3.754;2023-01-28T16:47:08;7.00;99.90
32698;DHT22;19087;51.062;3.754;2023-01-28T16:49:34;7.20;99.90
32698;DHT22;19087;51.062;3.754;2023-01-28T16:52:01;7.10;99.90
32698;DHT22;19087;51.062;3.754;2023-01-28T16:54:27;7.20;99.90
32698;DHT22;19087;51.062;3.754;2023-01-28T16:56:54;7.20;99.90
32698;DHT22;19087;51.062;3.754;2023-01-28T16:59:20;7.10;99.90
32698;DHT22;19087;51.062;3.754;2023-01-28T17:01:47;7.00;99.90
32698;DHT22;19087;51.062;3.754;2023-01-28T17:04:14;6.90;99.90
32698;DHT22;19087;51.062;3.754;2023-01-28T17:06:42;6.50;99.90
32698;DHT22;19087;51.062;3.754;2023-01-28T17:09:09;6.30;99.90
32698;DHT22;19087;51.062;3.754;2023-01-28T17:11:37;6.10;99.90
32698;DHT22;19087;51.062;3.754;2023-01-28T17:14:05;6.20;99.90
32698;DHT22;19087;51.062;3.754;2023-01-28T17:16:31;6.30;99.90
32698;DHT22;19087;51.062;3.754;2023-01-28T17:18:57;6.40;99.90
32698;DHT22;19087;51.062;3.754;2023-01-28T17:21:23;6.40;99.90
32698;DHT22;19087;51.062;3.754;2023-01-28T17:23:48;6.30;99.90
32698;DHT22;19087;51.062;3.754;2023-01-28T17:26:15;6.30;99.90
32698;DHT22;19087;51.062;3.754;2023-01-28T17:28:41;6.30;99.90
32698;DHT22;19087;51.062;3.754;2023-01-28T17:31:13;6.30;99.90
32698;DHT22;19087;51.062;3.754;2023-01-28T17:33:40;6.30;99.90
32698;DHT22;19087;51.062;3.754;2023-01-28T17:36:06;6.30;99.90
32698;DHT22;19087;51.062;3.754;2023-01-28T17:38:32;6.20;99.90
32698;DHT22;19087;51.062;3.754;2023-01-28T17:43:27;6.20;99.90
32698;DHT22;19087;51.062;3.754;2023-01-28T17:45:53;6.20;99.90
32698;DHT22;19087;51.062;3.754;2023-01-28T17:48:19;6.20;99.90
32698;DHT22;19087;51.062;3.754;2023-01-28T17:50:44;6.10;99.90
32698;DHT22;19087;51.062;3.754;2023-01-28T17:53:10;6.10;99.90
32698;DHT22;19087;51.062;3.754;2023-01-28T17:55:40;6.00;99.90
32698;DHT22;19087;51.062;3.754;2023-01-28T17:58:06;5.70;99.90
32698;DHT22;19087;51.062;3.754;2023-01-28T18:00:31;5.60;99.90
32698;DHT22;19087;51.062;3.754;2023-01-28T18:02:57;5.40;99.90
32698;DHT22;19087;51.062;3.754;2023-01-28T18:05:24;5.40;99.90
32698;DHT22;19087;51.062;3.754;2023-01-28T18:07:50;5.60;99.90
32698;DHT22;19087;51.062;3.754;2023-01-28T18:10:17;5.70;99.90
32698;DHT22;19087;51.062;3.754;2023-01-28T18:12:43;5.80;99.90